Flight Track Log - Related Links

Times and Time Zones

All times are in EDT time to prevent confusion due to time zone crossing. See the JBU576 flight status page for this flight to view local times or setup timezone preferences in your user account.

Time Position Orientation Groundspeed Altitude Reporting Facility
EDT Latitude Longitude Course Direction KTS MPH feet Rate Location/Type
Tue 10:39:15 AM 28.4600 -81.3080 190° South  Level FlightAware Approximate
Tue 10:40:02 AM 28.4167 -81.3167 139° Southeast 148 170 800  Level Orlando TRACON
Tue 10:41:26 AM 28.3667 -81.2667 106° East 211 243 3,600 2,028 Climbing Orlando TRACON
Tue 10:42:27 AM 28.3500 -81.2000 77° East 261 300 5,700 2,400 Climbing Orlando TRACON
Tue 10:43:21 AM 28.3667 -81.1167 355° North 277 319 8,200 2,159 Climbing Orlando TRACON
Tue 10:45:11 AM 28.5050 -81.1303 342° North 267 307 11,600 2,188 Climbing Jacksonville Center
Tue 10:46:11 AM 28.6017 -81.1664 348° North 306 352 14,400 2,600 Climbing Jacksonville Center
Tue 10:47:11 AM 28.7022 -81.1908 351° North 341 392 16,800 2,350 Climbing Jacksonville Center
Tue 10:48:11 AM 28.8108 -81.2103 351° North 369 425 19,100 2,150 Climbing Jacksonville Center
Tue 10:49:11 AM 28.9217 -81.2297 349° North 389 448 21,100 2,100 Climbing Jacksonville Center
Tue 10:50:11 AM 29.0347 -81.2539 350° North 401 461 23,300 1,900 Climbing Jacksonville Center
Tue 10:51:11 AM 29.1519 -81.2781 352° North 413 475 24,900 1,600 Climbing Jacksonville Center
Tue 10:52:11 AM 29.2733 -81.2975 349° North 428 493 26,500 1,500 Climbing Jacksonville Center
Tue 10:53:11 AM 29.3967 -81.3242 350° North 440 506 27,900 1,400 Climbing Jacksonville Center
Tue 10:54:11 AM 29.5181 -81.3486 350° North 446 513 29,300 1,450 Climbing Jacksonville Center
Tue 10:55:11 AM 29.6436 -81.3753 351° North 451 519 30,800 1,300 Climbing Jacksonville Center
Tue 10:56:11 AM 29.7692 -81.3994 350° North 451 519 31,900 1,450 Climbing Jacksonville Center
Tue 10:57:11 AM 29.8928 -81.4239 351° North 446 513 33,700 1,500 Climbing Jacksonville Center
Tue 10:58:11 AM 30.0100 -81.4461 350° North 446 513 34,900 1,150 Climbing Jacksonville Center
Tue 10:59:11 AM 30.1292 -81.4708 351° North 441 507 36,000 1,050 Climbing Jacksonville Center
Tue 11:00:11 AM 30.2442 -81.4908 353° North 431 496 37,000 500 Climbing Jacksonville Center
Tue 11:01:11 AM 30.3656 -81.5083 North 431 496 37,000  Level Jacksonville Center
Tue 11:02:11 AM 30.5053 -81.4942 North 443 510 37,000  Level Jacksonville Center
Tue 11:03:11 AM 30.6325 -81.4850 North 443 510 37,000  Level Jacksonville Center
Tue 11:04:11 AM 30.7556 -81.4758 North 443 510 37,000  Level Jacksonville Center
Tue 11:05:11 AM 30.8806 -81.4619 North 443 510 37,000  Level Jacksonville Center
Tue 11:06:11 AM 31.0017 -81.4553 19° North 443 510 37,000  Level Jacksonville Center
Tue 11:07:11 AM 31.1203 -81.4075 32° Northeast 443 510 37,000  Level Jacksonville Center
Tue 11:08:11 AM 31.2300 -81.3281 31° Northeast 456 525 37,000  Level Jacksonville Center
Tue 11:09:11 AM 31.3375 -81.2531 31° Northeast 456 525 37,000  Level Jacksonville Center
Tue 11:10:11 AM 31.4431 -81.1783 31° Northeast 441 507 37,000  Level Jacksonville Center
Tue 11:11:11 AM 31.5547 -81.0981 31° Northeast 450 518 37,000  Level Jacksonville Center
Tue 11:12:11 AM 31.6539 -81.0281 32° Northeast 456 525 37,000  Level Jacksonville Center
Tue 11:13:11 AM 31.7714 -80.9400 32° Northeast 456 525 37,000  Level Jacksonville Center
Tue 11:14:11 AM 31.8686 -80.8694 32° Northeast 456 525 37,000  Level Jacksonville Center
Tue 11:15:11 AM 31.9861 -80.7836 32° Northeast 446 513 37,000  Level Jacksonville Center
Tue 11:16:11 AM 32.0975 -80.7025 32° Northeast 451 519 37,000  Level Jacksonville Center
Tue 11:17:11 AM 32.2025 -80.6264 32° Northeast 451 519 37,000  Level Jacksonville Center
Tue 11:18:11 AM 32.3014 -80.5528 20° North 448 516 37,000 150 Level Jacksonville Center
Tue 11:19:11 AM 32.4194 -80.5006 16° North 448 516 37,300 550 Climbing Jacksonville Center
Tue 11:20:11 AM 32.5481 -80.4578 23° Northeast 438 504 38,100 750 Climbing Jacksonville Center
Tue 11:21:11 AM 32.6619 -80.4003 34° Northeast 438 504 38,800 450 Climbing Jacksonville Center
Tue 11:22:11 AM 32.7564 -80.3236 34° Northeast 438 504 39,000 100 Climbing Jacksonville Center
Tue 11:23:11 AM 32.8569 -80.2442 32° Northeast 438 504 39,000  Level Jacksonville Center
Tue 11:24:11 AM 32.9781 -80.1539 36° Northeast 454 522 39,000  Level Jacksonville Center
Tue 11:25:11 AM 33.0683 -80.0767 32° Northeast 452 520 39,000  Level Jacksonville Center
Tue 11:26:11 AM 33.1772 -79.9964 33° Northeast 452 520 39,000  Level Jacksonville Center
Tue 11:27:11 AM 33.2775 -79.9186 33° Northeast 446 513 39,000  Level Jacksonville Center
Tue 11:28:11 AM 33.3861 -79.8328 33° Northeast 446 513 39,000  Level Jacksonville Center
Tue 11:29:11 AM 33.4886 -79.7522 33° Northeast 451 519 39,000  Level Jacksonville Center
Tue 11:30:11 AM 33.5928 -79.6711 35° Northeast 451 519 39,000  Level Jacksonville Center
Tue 11:31:11 AM 33.6950 -79.5850 33° Northeast 451 519 39,000  Level Jacksonville Center
Tue 11:32:11 AM 33.7992 -79.5036 32° Northeast 446 513 39,000  Level Jacksonville Center
Tue 11:33:11 AM 33.9036 -79.4247 33° Northeast 446 513 39,000  Level Jacksonville Center
Tue 11:34:11 AM 34.0078 -79.3428 33° Northeast 446 513 39,000  Level Jacksonville Center
Tue 11:35:11 AM 34.1117 -79.2608 35° Northeast 446 513 39,000  Level Jacksonville Center
Tue 11:37:10 AM 34.3214 -79.0797 31° Northeast 447 514 39,000  Level Washington Center
Tue 11:38:11 AM 34.4300 -79.0011 37° Northeast 447 514 39,000  Level Washington Center
Tue 11:39:09 AM 34.5286 -78.9094 33° Northeast 447 514 39,000  Level Washington Center
Tue 11:40:10 AM 34.6350 -78.8256 34° Northeast 454 522 39,000  Level Washington Center
Tue 11:41:11 AM 34.7375 -78.7411 34° Northeast 454 522 39,000  Level Washington Center
Tue 11:42:09 AM 34.8419 -78.6567 34° Northeast 454 522 39,000  Level Washington Center
Tue 11:43:09 AM 34.9358 -78.5792 35° Northeast 454 522 39,000  Level Washington Center
Tue 11:44:10 AM 35.0400 -78.4917 35° Northeast 454 522 39,000  Level Washington Center
Tue 11:45:10 AM 35.1425 -78.4039 34° Northeast 454 522 39,000  Level Washington Center
Tue 11:46:11 AM 35.2486 -78.3158 34° Northeast 460 529 39,000  Level Washington Center
Tue 11:47:11 AM 35.3528 -78.2303 34° Northeast 460 529 39,000  Level Washington Center
Tue 11:48:09 AM 35.4592 -78.1419 34° Northeast 455 524 39,000  Level Washington Center
Tue 11:49:09 AM 35.5611 -78.0558 33° Northeast 455 524 39,000  Level Washington Center
Tue 11:50:10 AM 35.6672 -77.9697 35° Northeast 455 524 39,000  Level Washington Center
Tue 11:51:10 AM 35.7711 -77.8806 34° Northeast 450 518 39,000  Level Washington Center
Tue 11:52:11 AM 35.8750 -77.7939 34° Northeast 450 518 39,000  Level Washington Center
Tue 11:53:11 AM 35.9789 -77.7069 36° Northeast 450 518 39,000  Level Washington Center
Tue 11:54:09 AM 36.0806 -77.6147 38° Northeast 450 518 39,000  Level Washington Center
Tue 11:55:09 AM 36.1886 -77.5119 39° Northeast 456 525 39,000  Level Washington Center
Tue 11:56:10 AM 36.2733 -77.4264 37° Northeast 447 514 39,000  Level Washington Center
Tue 11:57:11 AM 36.3750 -77.3306 37° Northeast 444 511 39,000  Level Washington Center
Tue 11:58:11 AM 36.4767 -77.2347 37° Northeast 444 511 39,000  Level Washington Center
Tue 11:59:11 AM 36.5864 -77.1311 37° Northeast 449 517 39,000  Level Washington Center
Tue 12:00:09 PM 36.6878 -77.0372 37° Northeast 449 517 39,000  Level Washington Center
Tue 12:01:10 PM 36.7889 -76.9431 35° Northeast 443 510 39,000  Level Washington Center
Tue 12:02:11 PM 36.8922 -76.8514 36° Northeast 448 516 39,000  Level Washington Center
Tue 12:03:11 PM 36.9933 -76.7594 36° Northeast 453 521 39,000  Level Washington Center
Tue 12:04:09 PM 37.0964 -76.6647 36° Northeast 453 521 39,000  Level Washington Center
Tue 12:05:10 PM 37.1994 -76.5722 37° Northeast 458 527 39,000  Level Washington Center
Tue 12:06:10 PM 37.3022 -76.4744 36° Northeast 458 527 39,000  Level Washington Center
Tue 12:07:11 PM 37.3967 -76.3892 35° Northeast 458 527 39,000  Level Washington Center
Tue 12:08:11 PM 37.4994 -76.2986 36° Northeast 458 527 39,000  Level Washington Center
Tue 12:09:09 PM 37.6044 -76.2025 34° Northeast 458 527 39,000  Level Washington Center
Tue 12:10:09 PM 37.7092 -76.1142 39° Northeast 458 527 39,000  Level Washington Center
Tue 12:11:10 PM 37.8075 -76.0122 36° Northeast 458 527 39,000  Level Washington Center
Tue 12:12:10 PM 37.9119 -75.9156 36° Northeast 458 527 39,000  Level Washington Center
Tue 12:13:11 PM 38.0144 -75.8211 36° Northeast 458 527 39,000  Level Washington Center
Tue 12:14:12 PM 38.1167 -75.7264 38° Northeast 458 527 39,000  Level Washington Center
Tue 12:15:10 PM 38.2189 -75.6261 34° Northeast 458 527 39,000  Level Washington Center
Tue 12:16:11 PM 38.3233 -75.5361 22° Northeast 458 527 39,000  Level Washington Center
Tue 12:17:11 PM 38.4400 -75.4750 18° North 437 503 39,000  Level Washington Center
Tue 12:18:09 PM 38.5586 -75.4244 18° North 443 510 39,000  Level Washington Center
Tue 12:19:09 PM 38.6775 -75.3764 28° Northeast 448 516 39,000  Level Washington Center
Tue 12:20:10 PM 38.7900 -75.2986 39° Northeast 448 516 39,000  Level Washington Center
Tue 12:21:10 PM 38.8917 -75.1942 36° Northeast 448 516 39,000  Level Washington Center
Tue 12:22:12 PM 38.9978 -75.0947 37° Northeast 460 529 39,000  Level Washington Center
Tue 12:23:09 PM 39.1014 -74.9953 39° Northeast 465 535 39,000  Level Washington Center
Tue 12:24:10 PM 39.2008 -74.8897 35° Northeast 465 535 39,000 -347 Level Washington Center
Tue 12:25:10 PM 39.3067 -74.7950 37° Northeast 460 529 38,300 -1,160 Descending Washington Center
Tue 12:26:09 PM 39.4225 -74.6808 37° Northeast 465 535 36,700 -1,513 Descending Washington Center
Tue 12:27:09 PM 39.5278 -74.5772 37° Northeast 465 535 35,300 -1,388 Descending Washington Center
Tue 12:28:10 PM 39.6353 -74.4706 37° Northeast 475 547 33,900 -1,447 Descending Washington Center
Tue 12:30:28 PM 39.8750 -74.2358 38° Northeast 492 566 30,500 -1,650 Descending New York Center
Tue 12:31:30 PM 39.9825 -74.1272 38° Northeast 481 554 28,400 -2,311 Descending New York Center
Tue 12:32:30 PM 40.0919 -74.0161 37° Northeast 481 554 25,800 -1,729 Descending New York Center
Tue 12:33:28 PM 40.1992 -73.9097 37° Northeast 481 554 25,000 -403 Descending New York Center
Tue 12:34:29 PM 40.3039 -73.8056 38° Northeast 481 554 25,000  Level New York Center
Tue 12:35:30 PM 40.4067 -73.6983 38° Northeast 476 548 25,000 -832 Level New York Center
Tue 12:37:22 PM 40.6200 -73.4817 38° Northeast 532 612 22,600 -1,814 Descending Boston Center
Tue 12:38:22 PM 40.7208 -73.3794 38° Northeast 483 556 19,800 -1,800 Descending Boston Center
Tue 12:39:22 PM 40.8156 -73.2819 North 449 517 19,000 -450 Descending Boston Center
Tue 12:40:22 PM 40.9322 -73.2642 343° North 414 476 18,900 -1,400 Descending Boston Center
Tue 12:41:22 PM 41.0361 -73.3069 342° North 385 443 16,200 -2,700 Descending Boston Center
Tue 12:42:22 PM 41.1275 -73.3467 345° North 377 434 13,500 -2,550 Descending Boston Center
Tue 12:43:22 PM 41.2294 -73.3839 342° North 360 414 11,100 -1,250 Descending Boston Center
Tue 12:44:22 PM 41.3083 -73.4183 344° North 337 388 11,000 -50 Descending Boston Center
Tue 12:45:22 PM 41.4017 -73.4531 343° North 322 371 11,000  Level Boston Center
Tue 12:46:22 PM 41.4786 -73.4847 343° North 322 371 11,000 -1,000 Level Boston Center
Tue 12:47:22 PM 41.5636 -73.5194 344° North 304 350 9,000 -1,478 Descending Boston Center
Tue 12:49:49 PM 41.7333 -73.5833 270° West 229 264 5,900 -1,449 Descending New York TRACON
Tue 12:50:49 PM 41.7333 -73.6500 225° Southwest 218 251 4,000 -1,150 Descending New York TRACON
Tue 12:51:49 PM 41.6833 -73.7167 228° Southwest 215 247 3,600 -750 Descending New York TRACON
Tue 12:52:49 PM 41.6500 -73.7667 236° Southwest 220 253 2,500 -550 Descending New York TRACON
Tue 12:53:49 PM 41.6167 -73.8333 217° Southwest 218 251 2,500  Level New York TRACON
Tue 12:54:49 PM 41.5667 -73.8833 236° Southwest 222 255 2,500  Level New York TRACON
Tue 12:55:49 PM 41.5333 -73.9500 246° West 223 257 2,500 -350 Level New York TRACON
Tue 12:56:49 PM 41.5167 -74.0000 270° West 146 168 1,800 -750 Descending New York TRACON
Tue 12:57:49 PM 41.5167 -74.0667 270° West 140 161 1,000 -800 Descending New York TRACON

Login

Don't have an account? Register now (free) for customized features, flight alerts, and more!